sensor_id;sensor_type;location;lat;lon;timestamp;pressure;altitude;pressure_sealevel;temperature;humidity
38253;BME280;24785;52.372;20.672;2023-05-11T00:00:11;101257.59;;;9.19;47.38
38253;BME280;24785;52.372;20.672;2023-05-11T00:10:32;101254.38;;;9.17;47.17
38253;BME280;24785;52.372;20.672;2023-05-11T00:20:33;101255.63;;;8.97;47.22
38253;BME280;24785;52.372;20.672;2023-05-11T00:30:34;101259.91;;;8.65;48.28
38253;BME280;24785;52.372;20.672;2023-05-11T00:40:35;101259.28;;;8.46;48.33
38253;BME280;24785;52.372;20.672;2023-05-11T00:50:36;101256.19;;;8.37;48.46
38253;BME280;24785;52.372;20.672;2023-05-11T01:00:37;101265.06;;;8.03;49.56
38253;BME280;24785;52.372;20.672;2023-05-11T01:10:47;101275.00;;;6.79;56.92
38253;BME280;24785;52.372;20.672;2023-05-11T01:20:56;101275.50;;;6.09;60.45
38253;BME280;24785;52.372;20.672;2023-05-11T01:31:06;101271.13;;;5.96;61.50
38253;BME280;24785;52.372;20.672;2023-05-11T01:41:14;101276.28;;;5.73;62.76
38253;BME280;24785;52.372;20.672;2023-05-11T01:51:18;101270.31;;;5.34;64.72
38253;BME280;24785;52.372;20.672;2023-05-11T02:01:20;101287.81;;;5.17;66.93
38253;BME280;24785;52.372;20.672;2023-05-11T02:11:22;101290.66;;;5.22;67.80
38253;BME280;24785;52.372;20.672;2023-05-11T02:21:26;101288.50;;;5.06;68.37
38253;BME280;24785;52.372;20.672;2023-05-11T02:31:28;101287.06;;;4.79;69.70
38253;BME280;24785;52.372;20.672;2023-05-11T02:41:30;101298.00;;;4.57;71.38
38253;BME280;24785;52.372;20.672;2023-05-11T02:51:35;101306.34;;;4.61;71.97
38253;BME280;24785;52.372;20.672;2023-05-11T03:01:38;101301.28;;;4.53;72.31
38253;BME280;24785;52.372;20.672;2023-05-11T03:11:39;101298.25;;;4.49;72.81
38253;BME280;24785;52.372;20.672;2023-05-11T03:21:41;101303.56;;;4.49;73.60
38253;BME280;24785;52.372;20.672;2023-05-11T03:31:42;101303.31;;;4.95;72.30
38253;BME280;24785;52.372;20.672;2023-05-11T03:41:48;101307.84;;;6.43;66.89
38253;BME280;24785;52.372;20.672;2023-05-11T03:51:49;101288.88;;;8.04;60.36
38253;BME280;24785;52.372;20.672;2023-05-11T04:01:51;101300.38;;;9.35;56.43
38253;BME280;24785;52.372;20.672;2023-05-11T04:11:53;101292.38;;;11.10;51.95
38253;BME280;24785;52.372;20.672;2023-05-11T04:21:54;101289.81;;;12.05;47.88
38253;BME280;24785;52.372;20.672;2023-05-11T04:31:55;101287.63;;;13.15;45.51
38253;BME280;24785;52.372;20.672;2023-05-11T04:41:56;101282.81;;;13.37;43.99
38253;BME280;24785;52.372;20.672;2023-05-11T04:51:58;101283.50;;;13.94;42.76
38253;BME280;24785;52.372;20.672;2023-05-11T05:01:59;101297.34;;;14.36;43.17
38253;BME280;24785;52.372;20.672;2023-05-11T05:12:00;101295.19;;;13.43;43.75
38253;BME280;24785;52.372;20.672;2023-05-11T05:22:01;101307.53;;;12.83;44.87
38253;BME280;24785;52.372;20.672;2023-05-11T05:32:02;101311.84;;;13.05;45.37
38253;BME280;24785;52.372;20.672;2023-05-11T05:42:03;101310.50;;;12.87;45.26
38253;BME280;24785;52.372;20.672;2023-05-11T05:52:04;101319.91;;;12.84;45.29
38253;BME280;24785;52.372;20.672;2023-05-11T06:02:05;101313.75;;;13.09;46.30
38253;BME280;24785;52.372;20.672;2023-05-11T06:12:06;101318.06;;;13.56;43.59
38253;BME280;24785;52.372;20.672;2023-05-11T06:22:07;101318.03;;;13.86;42.57
38253;BME280;24785;52.372;20.672;2023-05-11T06:32:08;101316.63;;;14.04;41.60
38253;BME280;24785;52.372;20.672;2023-05-11T06:42:09;101317.25;;;14.51;40.17
38253;BME280;24785;52.372;20.672;2023-05-11T06:52:09;101305.38;;;14.57;36.46
38253;BME280;24785;52.372;20.672;2023-05-11T07:02:10;101311.31;;;14.98;38.44
38253;BME280;24785;52.372;20.672;2023-05-11T07:12:12;101314.78;;;15.03;37.96
38253;BME280;24785;52.372;20.672;2023-05-11T07:22:13;101301.31;;;15.32;35.33
38253;BME280;24785;52.372;20.672;2023-05-11T07:32:14;101296.81;;;15.52;35.00
38253;BME280;24785;52.372;20.672;2023-05-11T07:42:14;101292.22;;;15.52;35.05
38253;BME280;24785;52.372;20.672;2023-05-11T07:52:16;101282.34;;;15.71;32.21
38253;BME280;24785;52.372;20.672;2023-05-11T08:02:16;101275.56;;;15.74;33.12
38253;BME280;24785;52.372;20.672;2023-05-11T08:12:18;101281.69;;;16.03;31.98
38253;BME280;24785;52.372;20.672;2023-05-11T08:22:19;101281.31;;;15.91;31.23
38253;BME280;24785;52.372;20.672;2023-05-11T08:32:19;101272.34;;;15.96;32.79
38253;BME280;24785;52.372;20.672;2023-05-11T08:42:23;101277.72;;;16.20;33.56
38253;BME280;24785;52.372;20.672;2023-05-11T08:52:24;101264.72;;;16.41;31.93
38253;BME280;24785;52.372;20.672;2023-05-11T09:02:27;101266.19;;;16.33;32.89
38253;BME280;24785;52.372;20.672;2023-05-11T09:12:27;101267.81;;;16.34;33.34
38253;BME280;24785;52.372;20.672;2023-05-11T09:22:31;101253.69;;;16.37;32.21
38253;BME280;24785;52.372;20.672;2023-05-11T09:32:45;101262.78;;;16.65;33.64
38253;BME280;24785;52.372;20.672;2023-05-11T09:42:47;101260.72;;;16.94;34.01
38253;BME280;24785;52.372;20.672;2023-05-11T09:52:51;101253.16;;;17.10;31.70
38253;BME280;24785;52.372;20.672;2023-05-11T10:13:01;101238.38;;;17.49;33.01
38253;BME280;24785;52.372;20.672;2023-05-11T10:23:03;101236.19;;;17.51;32.34
38253;BME280;24785;52.372;20.672;2023-05-11T10:33:05;101223.41;;;17.38;31.58
38253;BME280;24785;52.372;20.672;2023-05-11T10:53:40;101198.13;;;17.28;31.22
38253;BME280;24785;52.372;20.672;2023-05-11T11:04:02;101202.34;;;17.48;33.43
38253;BME280;24785;52.372;20.672;2023-05-11T11:14:07;101181.38;;;17.54;32.38
38253;BME280;24785;52.372;20.672;2023-05-11T11:34:38;101181.19;;;17.78;31.25
38253;BME280;24785;52.372;20.672;2023-05-11T11:44:40;101189.09;;;18.38;34.29
38253;BME280;24785;52.372;20.672;2023-05-11T11:54:43;101173.06;;;19.26;32.21
38253;BME280;24785;52.372;20.672;2023-05-11T12:04:51;101187.25;;;18.47;34.87
38253;BME280;24785;52.372;20.672;2023-05-11T12:14:55;101154.53;;;18.66;30.41
38253;BME280;24785;52.372;20.672;2023-05-11T12:24:56;101165.25;;;19.33;33.21
38253;BME280;24785;52.372;20.672;2023-05-11T12:35:01;101160.94;;;19.32;32.02
38253;BME280;24785;52.372;20.672;2023-05-11T12:45:04;101140.72;;;19.07;29.60
38253;BME280;24785;52.372;20.672;2023-05-11T12:55:05;101151.63;;;19.24;30.95
38253;BME280;24785;52.372;20.672;2023-05-11T13:05:10;101132.66;;;20.16;31.26
38253;BME280;24785;52.372;20.672;2023-05-11T13:15:12;101129.03;;;19.06;29.43
38253;BME280;24785;52.372;20.672;2023-05-11T13:25:14;101127.06;;;18.45;32.52
38253;BME280;24785;52.372;20.672;2023-05-11T13:35:15;101115.16;;;18.77;31.75
38253;BME280;24785;52.372;20.672;2023-05-11T13:45:16;101106.38;;;18.80;30.60
38253;BME280;24785;52.372;20.672;2023-05-11T13:55:17;101106.31;;;19.42;30.72
38253;BME280;24785;52.372;20.672;2023-05-11T14:05:17;101104.47;;;19.20;29.66
38253;BME280;24785;52.372;20.672;2023-05-11T14:15:18;101102.19;;;19.05;30.94
38253;BME280;24785;52.372;20.672;2023-05-11T14:25:19;101099.03;;;19.11;30.96
38253;BME280;24785;52.372;20.672;2023-05-11T14:35:20;101079.75;;;18.60;30.31
38253;BME280;24785;52.372;20.672;2023-05-11T14:45:21;101095.47;;;19.02;31.86
38253;BME280;24785;52.372;20.672;2023-05-11T14:55:22;101094.56;;;19.15;30.07
38253;BME280;24785;52.372;20.672;2023-05-11T15:05:22;101100.00;;;19.72;30.11
38253;BME280;24785;52.372;20.672;2023-05-11T15:15:23;101097.53;;;20.83;29.42
38253;BME280;24785;52.372;20.672;2023-05-11T15:25:24;101093.69;;;20.75;30.33
38253;BME280;24785;52.372;20.672;2023-05-11T15:35:25;101087.38;;;22.55;25.68
38253;BME280;24785;52.372;20.672;2023-05-11T15:45:26;101084.25;;;25.22;24.69
38253;BME280;24785;52.372;20.672;2023-05-11T15:55:28;101089.53;;;22.62;25.04
38253;BME280;24785;52.372;20.672;2023-05-11T16:05:29;101099.53;;;19.96;28.78
38253;BME280;24785;52.372;20.672;2023-05-11T16:15:30;101105.47;;;19.33;29.57
38253;BME280;24785;52.372;20.672;2023-05-11T16:25:31;101103.06;;;18.38;30.74
38253;BME280;24785;52.372;20.672;2023-05-11T16:35:32;101105.75;;;17.93;32.11
38253;BME280;24785;52.372;20.672;2023-05-11T16:45:32;101108.09;;;17.73;32.06
38253;BME280;24785;52.372;20.672;2023-05-11T16:55:33;101110.13;;;17.26;32.75
38253;BME280;24785;52.372;20.672;2023-05-11T17:05:34;101121.78;;;17.13;33.63
38253;BME280;24785;52.372;20.672;2023-05-11T17:15:35;101121.91;;;16.75;33.94
38253;BME280;24785;52.372;20.672;2023-05-11T17:25:36;101130.72;;;16.48;34.93
38253;BME280;24785;52.372;20.672;2023-05-11T17:35:37;101143.69;;;16.14;35.34
38253;BME280;24785;52.372;20.672;2023-05-11T17:45:38;101138.47;;;15.61;36.87
38253;BME280;24785;52.372;20.672;2023-05-11T17:55:39;101154.34;;;15.15;38.14
38253;BME280;24785;52.372;20.672;2023-05-11T18:05:39;101169.66;;;14.66;38.93
38253;BME280;24785;52.372;20.672;2023-05-11T18:15:40;101177.97;;;14.31;39.35
38253;BME280;24785;52.372;20.672;2023-05-11T18:25:42;101185.16;;;13.96;40.04
38253;BME280;24785;52.372;20.672;2023-05-11T18:35:43;101192.59;;;13.55;41.00
38253;BME280;24785;52.372;20.672;2023-05-11T18:45:44;101203.69;;;13.23;41.80
38253;BME280;24785;52.372;20.672;2023-05-11T18:55:45;101225.72;;;12.64;44.66
38253;BME280;24785;52.372;20.672;2023-05-11T19:05:47;101235.75;;;11.86;47.28
38253;BME280;24785;52.372;20.672;2023-05-11T19:15:48;101251.31;;;11.42;49.21
38253;BME280;24785;52.372;20.672;2023-05-11T19:25:49;101259.28;;;10.99;50.75
38253;BME280;24785;52.372;20.672;2023-05-11T19:35:50;101270.84;;;10.73;52.32
38253;BME280;24785;52.372;20.672;2023-05-11T19:45:51;101270.41;;;10.54;53.27
38253;BME280;24785;52.372;20.672;2023-05-11T19:55:53;101279.00;;;10.34;54.46
38253;BME280;24785;52.372;20.672;2023-05-11T20:05:54;101280.38;;;10.15;55.85
38253;BME280;24785;52.372;20.672;2023-05-11T20:15:55;101292.09;;;9.92;57.22
38253;BME280;24785;52.372;20.672;2023-05-11T20:25:56;101294.19;;;9.68;58.10
38253;BME280;24785;52.372;20.672;2023-05-11T20:35:57;101303.00;;;9.47;59.07
38253;BME280;24785;52.372;20.672;2023-05-11T20:46:02;101295.84;;;9.36;59.53
38253;BME280;24785;52.372;20.672;2023-05-11T20:56:04;101316.25;;;9.08;60.87
38253;BME280;24785;52.372;20.672;2023-05-11T21:06:05;101322.78;;;8.84;61.65
38253;BME280;24785;52.372;20.672;2023-05-11T21:16:06;101334.47;;;8.66;62.71
38253;BME280;24785;52.372;20.672;2023-05-11T21:26:07;101340.22;;;8.46;63.35
38253;BME280;24785;52.372;20.672;2023-05-11T21:36:08;101349.53;;;8.32;64.13
38253;BME280;24785;52.372;20.672;2023-05-11T21:46:09;101354.41;;;8.24;64.63
38253;BME280;24785;52.372;20.672;2023-05-11T21:56:10;101360.09;;;8.27;64.57
38253;BME280;24785;52.372;20.672;2023-05-11T22:06:11;101360.44;;;8.31;64.12
38253;BME280;24785;52.372;20.672;2023-05-11T22:16:12;101370.56;;;8.17;64.56
38253;BME280;24785;52.372;20.672;2023-05-11T22:26:13;101367.09;;;7.93;65.89
38253;BME280;24785;52.372;20.672;2023-05-11T22:36:14;101379.25;;;8.01;66.82
38253;BME280;24785;52.372;20.672;2023-05-11T22:46:15;101390.88;;;7.95;66.80
38253;BME280;24785;52.372;20.672;2023-05-11T22:56:16;101382.88;;;7.83;67.27
38253;BME280;24785;52.372;20.672;2023-05-11T23:06:17;101393.66;;;7.65;68.04
38253;BME280;24785;52.372;20.672;2023-05-11T23:16:19;101388.75;;;7.50;69.09
38253;BME280;24785;52.372;20.672;2023-05-11T23:26:19;101390.69;;;7.31;69.83
38253;BME280;24785;52.372;20.672;2023-05-11T23:36:20;101387.97;;;7.19;70.54
38253;BME280;24785;52.372;20.672;2023-05-11T23:46:22;101384.16;;;7.15;70.70
38253;BME280;24785;52.372;20.672;2023-05-11T23:56:23;101398.31;;;6.98;71.98
